< Cyclone 197409 1974 Season Cyclone 197411 >
Cyclone 197410 (VERA)
General InformationTrack Information on Google Maps || ResourceGoogle EarthGE AnimationAtom FeedGeoJSON
Detalied Best Track (Time Zone = UTC)
Year Month Day Hour Lat. Long. Pressure (hPa) Wind (kt) Class Image Chart
1974 1 17 23 -20.1 149.4 1000 0 0 -- --
1974 1 18 05 -19.5 148.7 997 0 0 -- --
1974 1 18 08 -19.3 148.0 997 0 0 -- --
1974 1 18 11 -18.8 147.8 998 0 0 -- --
1974 1 18 14 -18.7 147.8 996 0 0 -- --
1974 1 18 17 -18.5 148.0 996 0 0 -- --
1974 1 18 23 -18.4 148.6 998 0 0 -- --
1974 1 19 02 -18.2 148.9 997 0 0 -- --
1974 1 19 05 -17.6 148.9 996 0 0 -- --
1974 1 19 08 -16.9 149.2 996 0 0 -- --
1974 1 19 11 -16.7 150.0 998 0 0 -- --
1974 1 19 14 -16.7 151.0 999 0 0 -- --
1974 1 19 17 -18.3 152.7 990 0 0 -- --
1974 1 19 23 -18.5 153.6 990 0 0 -- --
1974 1 20 05 -19.1 155.1 988 0 0 -- --
1974 1 20 11 -20.1 157.0 988 0 0 -- --
1974 1 20 17 -21.1 158.7 986 0 0 -- --
1974 1 20 23 -22.3 160.5 988 0 0 -- --
1974 1 21 02 -22.7 161.5 990 0 0 -- --
1974 1 21 05 -22.9 162.5 993 0 0 -- --
1974 1 21 11 -23.6 164.6 998 0 0 -- --
< Cyclone 197409 1974 Season Cyclone 197411 >

Help